createdAt,value
2023-04-29T00:00:03.448Z,32.30
2023-04-29T00:03:29.163Z,32.10
2023-04-29T00:06:32.623Z,32.00
2023-04-29T00:09:35.210Z,31.90
2023-04-29T00:12:37.404Z,32.00
2023-04-29T00:15:41.982Z,32.00
2023-04-29T00:18:50.661Z,32.00
2023-04-29T00:21:54.828Z,32.10
2023-04-29T00:24:57.147Z,32.10
2023-04-29T00:28:02.477Z,32.10
2023-04-29T00:31:05.614Z,32.20
2023-04-29T00:34:11.048Z,32.10
2023-04-29T00:37:14.131Z,32.20
2023-04-29T00:40:17.460Z,32.30
2023-04-29T00:43:19.968Z,32.30
2023-04-29T00:46:28.280Z,32.30
2023-04-29T00:49:32.885Z,32.30
2023-04-29T00:52:38.232Z,32.30
2023-04-29T00:55:42.240Z,32.30
2023-04-29T00:58:54.615Z,32.20
2023-04-29T01:01:57.036Z,32.10
2023-04-29T01:05:05.811Z,32.10
2023-04-29T01:08:19.048Z,32.10
2023-04-29T01:11:26.221Z,32.10
2023-04-29T01:14:29.523Z,32.10
2023-04-29T01:17:40.332Z,32.10
2023-04-29T01:20:45.304Z,32.10
2023-04-29T01:23:56.457Z,32.20
2023-04-29T01:27:10.788Z,32.20
2023-04-29T01:30:33.405Z,32.10
2023-04-29T01:34:02.964Z,32.20
2023-04-29T01:37:37.899Z,32.10
2023-04-29T01:41:08.029Z,32.10
2023-04-29T01:44:22.503Z,32.10
2023-04-29T01:47:26.196Z,32.20
2023-04-29T01:50:33.003Z,32.30
2023-04-29T01:53:38.963Z,32.20
2023-04-29T01:56:45.133Z,32.30
2023-04-29T01:59:48.357Z,32.30
2023-04-29T02:02:51.151Z,32.30
2023-04-29T02:05:54.538Z,32.30
2023-04-29T02:08:58.147Z,32.30
2023-04-29T02:12:00.857Z,32.30
2023-04-29T02:15:07.165Z,32.30
2023-04-29T02:18:12.579Z,32.40
2023-04-29T02:21:16.094Z,32.40
2023-04-29T02:24:22.546Z,32.40
2023-04-29T02:27:26.878Z,32.30
2023-04-29T02:30:31.642Z,32.20
2023-04-29T02:33:36.874Z,32.20
2023-04-29T02:36:40.541Z,32.20
2023-04-29T02:39:44.570Z,32.20
2023-04-29T02:42:47.453Z,32.30
2023-04-29T02:45:50.955Z,32.30
2023-04-29T02:48:56.713Z,32.20
2023-04-29T02:52:02.178Z,32.00
2023-04-29T02:55:06.358Z,32.00
2023-04-29T02:58:13.147Z,32.00
2023-04-29T03:01:16.185Z,32.00
2023-04-29T03:04:25.426Z,32.10
2023-04-29T03:07:30.577Z,32.00
2023-04-29T03:10:37.188Z,31.80
2023-04-29T03:13:44.173Z,31.70
2023-04-29T03:16:47.239Z,31.50
2023-04-29T03:19:57.317Z,31.40
2023-04-29T03:23:00.991Z,31.40
2023-04-29T03:26:03.224Z,31.50
2023-04-29T03:29:08.799Z,31.50
2023-04-29T03:32:13.597Z,31.60
2023-04-29T03:35:18.884Z,31.40
2023-04-29T03:38:21.203Z,31.50
2023-04-29T03:41:35.856Z,31.40
2023-04-29T03:44:45.792Z,31.40
2023-04-29T03:48:00.228Z,31.40
2023-04-29T03:51:02.659Z,31.40
2023-04-29T03:54:13.079Z,31.60
2023-04-29T03:57:27.567Z,31.70
2023-04-29T04:00:41.187Z,31.70
2023-04-29T04:03:43.522Z,31.70
2023-04-29T04:06:51.203Z,31.70
2023-04-29T04:09:53.529Z,31.90
2023-04-29T04:12:59.905Z,31.90
2023-04-29T04:16:02.420Z,31.80
2023-04-29T04:19:06.202Z,31.90
2023-04-29T04:22:12.963Z,31.90
2023-04-29T04:25:16.517Z,31.80
2023-04-29T04:28:19.803Z,31.90
2023-04-29T04:31:22.879Z,32.00
2023-04-29T04:34:29.960Z,32.00
2023-04-29T04:37:34.898Z,32.10
2023-04-29T04:40:42.637Z,32.10
2023-04-29T04:43:48.760Z,31.90
2023-04-29T04:46:52.215Z,32.00
2023-04-29T04:49:54.732Z,32.00
2023-04-29T04:52:58.424Z,31.90
2023-04-29T04:56:26.162Z,31.80
2023-04-29T04:59:29.238Z,31.80
2023-04-29T05:02:31.684Z,31.90
2023-04-29T05:05:38.245Z,32.00
2023-04-29T05:08:41.417Z,31.80
2023-04-29T05:11:43.982Z,31.90
2023-04-29T05:14:46.568Z,31.60
2023-04-29T05:17:49.163Z,31.60
2023-04-29T05:20:51.333Z,31.50
2023-04-29T05:23:53.599Z,31.50
2023-04-29T05:27:11.255Z,31.60
2023-04-29T05:30:18.532Z,31.90
2023-04-29T05:38:41.833Z,32.30
2023-04-29T05:42:08.768Z,32.80
2023-04-29T05:45:10.914Z,33.00
2023-04-29T05:48:18.994Z,33.20
2023-04-29T05:51:25.174Z,33.10
2023-04-29T05:54:28.565Z,33.20
2023-04-29T05:57:31.036Z,33.40
2023-04-29T06:00:33.630Z,33.30
2023-04-29T06:03:36.613Z,33.40
2023-04-29T06:06:39.644Z,33.40
2023-04-29T06:09:42.885Z,33.70
2023-04-29T06:13:08.647Z,33.70
2023-04-29T06:16:29.800Z,34.00
2023-04-29T06:19:59.068Z,34.10
2023-04-29T06:23:01.032Z,34.10
2023-04-29T06:26:06.846Z,34.00
2023-04-29T06:30:19.731Z,33.90
2023-04-29T06:34:10.363Z,34.10
2023-04-29T06:42:17.470Z,34.60
2023-04-29T07:02:17.239Z,35.00
2023-04-29T07:05:31.800Z,35.30
2023-04-29T07:08:34.070Z,35.40
2023-04-29T07:12:24.127Z,35.60
2023-04-29T07:15:37.178Z,35.80
2023-04-29T07:19:22.582Z,36.00
2023-04-29T07:22:36.840Z,35.80
2023-04-29T07:31:26.215Z,35.90
2023-04-29T07:34:37.494Z,36.20
2023-04-29T07:47:03.497Z,35.60
2023-04-29T07:51:39.834Z,35.40
2023-04-29T08:04:48.350Z,34.80
2023-04-29T08:17:28.245Z,35.40
2023-04-29T08:20:30.604Z,35.50
2023-04-29T08:23:33.136Z,35.80
2023-04-29T08:26:35.548Z,36.10
2023-04-29T08:29:37.666Z,36.30
2023-04-29T08:32:40.002Z,36.30
2023-04-29T08:35:42.602Z,36.70
2023-04-29T08:38:44.987Z,36.80
2023-04-29T08:41:51.224Z,36.70
2023-04-29T08:44:54.287Z,36.90
2023-04-29T08:47:57.444Z,37.10
2023-04-29T08:51:00.712Z,37.30
2023-04-29T08:54:02.822Z,37.40
2023-04-29T08:57:06.277Z,37.40
2023-04-29T09:00:10.684Z,37.50
2023-04-29T09:03:21.118Z,37.80
2023-04-29T09:06:24.011Z,37.80
2023-04-29T09:09:26.785Z,38.10
2023-04-29T09:12:30.444Z,38.10
2023-04-29T09:15:41.381Z,38.30
2023-04-29T09:18:49.081Z,38.30
2023-04-29T09:21:57.737Z,38.60
2023-04-29T09:25:12.869Z,38.60
2023-04-29T09:28:19.342Z,38.50
2023-04-29T09:31:28.325Z,38.30
2023-04-29T09:34:32.553Z,38.40
2023-04-29T09:37:38.143Z,38.40
2023-04-29T09:40:57.575Z,38.40
2023-04-29T09:44:07.898Z,38.40
2023-04-29T09:47:10.855Z,38.60
2023-04-29T09:50:16.489Z,38.60
2023-04-29T09:53:29.807Z,38.70
2023-04-29T09:56:49.670Z,38.40
2023-04-29T09:59:51.920Z,38.10
2023-04-29T10:02:56.286Z,38.00
2023-04-29T10:06:00.217Z,37.80
2023-04-29T10:09:02.319Z,37.80
2023-04-29T10:12:07.440Z,37.80
2023-04-29T10:15:19.123Z,37.90
2023-04-29T10:18:26.333Z,38.20
2023-04-29T10:21:31.309Z,38.20
2023-04-29T10:24:37.737Z,38.50
2023-04-29T10:27:41.473Z,38.50
2023-04-29T10:30:57.159Z,38.50
2023-04-29T10:34:03.613Z,38.60
2023-04-29T10:37:10.307Z,38.50
2023-04-29T10:40:17.964Z,38.70
2023-04-29T10:43:24.988Z,38.40
2023-04-29T10:46:27.329Z,38.20
2023-04-29T10:49:35.155Z,38.30
2023-04-29T10:52:53.151Z,38.40
2023-04-29T10:56:04.834Z,38.40
2023-04-29T10:59:40.261Z,38.10
2023-04-29T11:02:46.014Z,37.80
2023-04-29T11:05:48.188Z,37.70
2023-04-29T11:09:01.927Z,37.70
2023-04-29T11:12:05.932Z,37.70
2023-04-29T11:15:11.113Z,37.60
2023-04-29T11:18:13.857Z,37.50
2023-04-29T11:21:16.219Z,37.50
2023-04-29T11:24:35.149Z,37.50
2023-04-29T11:27:40.712Z,37.50
2023-04-29T11:30:45.498Z,37.50
2023-04-29T11:34:08.271Z,37.50
2023-04-29T11:37:11.064Z,37.60
2023-04-29T11:40:17.509Z,37.60
2023-04-29T11:43:20.831Z,37.70
2023-04-29T11:46:32.283Z,37.70
2023-04-29T11:49:37.500Z,37.60
2023-04-29T11:53:04.905Z,37.80
2023-04-29T11:56:29.989Z,37.90
2023-04-29T11:59:47.535Z,38.00
2023-04-29T12:02:55.678Z,38.10
2023-04-29T12:05:57.998Z,38.20
2023-04-29T12:09:18.653Z,38.20
2023-04-29T12:12:57.294Z,38.10
2023-04-29T12:16:17.348Z,38.10
2023-04-29T12:19:19.600Z,38.20
2023-04-29T12:22:21.749Z,38.40
2023-04-29T12:29:37.404Z,38.60
2023-04-29T12:32:52.195Z,38.70
2023-04-29T12:36:13.264Z,39.00
2023-04-29T12:39:22.870Z,39.10
2023-04-29T12:43:29.378Z,38.90
2023-04-29T12:46:56.295Z,38.80
2023-04-29T12:58:09.350Z,38.10
2023-04-29T13:05:04.892Z,38.20
2023-04-29T13:12:48.524Z,38.60
2023-04-29T13:16:18.040Z,38.80
2023-04-29T13:19:46.834Z,39.10
2023-04-29T13:23:14.469Z,39.00
2023-04-29T13:26:37.475Z,38.90
2023-04-29T13:29:51.640Z,39.00
2023-04-29T13:33:12.401Z,39.00
2023-04-29T13:36:23.927Z,38.70
2023-04-29T13:39:38.241Z,38.80
2023-04-29T13:42:50.471Z,38.50
2023-04-29T13:45:58.723Z,38.30
2023-04-29T13:49:22.506Z,38.20
2023-04-29T13:59:31.661Z,37.10
2023-04-29T14:09:23.829Z,36.40
2023-04-29T14:12:34.058Z,36.00
2023-04-29T14:15:44.114Z,35.90
2023-04-29T14:18:48.952Z,35.70
2023-04-29T14:21:51.799Z,35.60
2023-04-29T14:24:54.378Z,35.60
2023-04-29T14:28:22.170Z,35.50
2023-04-29T14:31:43.442Z,35.40
2023-04-29T14:34:56.034Z,35.10
2023-04-29T14:38:07.999Z,35.20
2023-04-29T14:44:56.917Z,35.10
2023-04-29T14:48:20.185Z,35.20
2023-04-29T14:51:24.108Z,35.00
2023-04-29T14:54:27.214Z,34.90
2023-04-29T14:57:29.971Z,34.90
2023-04-29T15:00:32.035Z,35.00
2023-04-29T15:06:42.282Z,35.30
2023-04-29T15:09:45.820Z,35.50
2023-04-29T15:12:47.828Z,35.60
2023-04-29T15:15:50.900Z,35.80
2023-04-29T15:18:52.852Z,35.80
2023-04-29T15:21:55.131Z,36.10
2023-04-29T15:24:57.090Z,36.30
2023-04-29T15:27:59.514Z,36.40
2023-04-29T15:31:03.796Z,36.40
2023-04-29T15:34:06.600Z,36.30
2023-04-29T15:37:08.555Z,36.40
2023-04-29T15:40:11.285Z,36.50
2023-04-29T15:43:13.290Z,36.50
2023-04-29T15:46:32.467Z,36.40
2023-04-29T15:49:43.005Z,36.40
2023-04-29T15:52:45.921Z,36.50
2023-04-29T15:55:47.911Z,36.50
2023-04-29T15:58:50.364Z,36.40
2023-04-29T16:01:52.457Z,36.20
2023-04-29T16:04:54.875Z,35.60
2023-04-29T16:08:23.719Z,34.70
2023-04-29T16:11:26.393Z,34.80
2023-04-29T16:14:29.193Z,34.70
2023-04-29T16:17:34.620Z,34.70
2023-04-29T16:20:36.763Z,34.50
2023-04-29T16:23:39.022Z,34.40
2023-04-29T16:26:41.469Z,34.10
2023-04-29T16:29:45.274Z,33.90
2023-04-29T16:32:48.018Z,33.70
2023-04-29T16:35:50.423Z,33.10
2023-04-29T16:38:54.975Z,33.00
2023-04-29T16:41:59.546Z,32.90
2023-04-29T16:45:01.750Z,32.90
2023-04-29T16:48:04.378Z,32.60
2023-04-29T16:51:06.560Z,32.60
2023-04-29T16:54:08.906Z,32.40
2023-04-29T16:57:10.828Z,31.90
2023-04-29T17:00:13.372Z,32.10
2023-04-29T17:03:23.233Z,31.80
2023-04-29T17:06:32.314Z,31.60
2023-04-29T17:09:34.504Z,31.60
2023-04-29T17:12:37.016Z,31.90
2023-04-29T17:15:38.926Z,31.90
2023-04-29T17:18:47.141Z,31.90
2023-04-29T17:21:49.629Z,31.60
2023-04-29T17:24:52.200Z,31.20
2023-04-29T17:27:57.151Z,30.90
2023-04-29T17:31:06.417Z,30.90
2023-04-29T17:34:18.809Z,30.90
2023-04-29T17:37:25.765Z,31.10
2023-04-29T17:40:27.937Z,31.10
2023-04-29T17:43:41.941Z,31.40
2023-04-29T17:46:46.723Z,31.70
2023-04-29T17:50:03.071Z,32.00
2023-04-29T17:53:08.250Z,32.10
2023-04-29T17:56:10.794Z,32.30
2023-04-29T17:59:12.789Z,32.20
2023-04-29T18:02:15.169Z,32.00
2023-04-29T18:05:17.329Z,32.10
2023-04-29T18:08:20.212Z,32.10
2023-04-29T18:11:37.609Z,32.00
2023-04-29T18:14:46.273Z,31.80
2023-04-29T18:17:48.579Z,31.90
2023-04-29T18:20:50.947Z,31.70
2023-04-29T18:23:56.027Z,31.80
2023-04-29T18:27:04.587Z,32.00
2023-04-29T18:30:07.720Z,31.70
2023-04-29T18:33:10.045Z,31.80
2023-04-29T18:36:14.120Z,31.80
2023-04-29T18:39:17.017Z,31.90
2023-04-29T18:42:19.007Z,32.00
2023-04-29T18:45:21.230Z,32.20
2023-04-29T18:48:24.029Z,31.90
2023-04-29T18:51:26.412Z,31.60
2023-04-29T18:54:28.418Z,31.20
2023-04-29T18:57:30.844Z,31.40
2023-04-29T19:00:32.805Z,31.00
2023-04-29T19:03:35.495Z,30.80
2023-04-29T19:06:37.871Z,30.30
2023-04-29T19:09:40.242Z,30.50
2023-04-29T19:12:42.256Z,30.50
2023-04-29T19:15:44.633Z,30.30
2023-04-29T19:18:46.815Z,30.40
2023-04-29T19:21:49.127Z,30.30
2023-04-29T19:24:51.135Z,30.10
2023-04-29T19:27:53.702Z,29.50
2023-04-29T19:30:56.074Z,29.90
2023-04-29T19:33:58.334Z,30.30
2023-04-29T19:37:01.092Z,30.70
2023-04-29T19:40:04.127Z,30.60
2023-04-29T19:43:06.237Z,30.20
2023-04-29T19:46:08.749Z,30.10
2023-04-29T19:49:11.861Z,29.10
2023-04-29T19:52:14.270Z,28.90
2023-04-29T19:55:17.309Z,28.50
2023-04-29T19:58:20.094Z,28.80
2023-04-29T20:01:22.275Z,28.00
2023-04-29T20:04:25.467Z,28.10
2023-04-29T20:07:27.453Z,27.90
2023-04-29T20:10:30.185Z,28.30
2023-04-29T20:13:32.278Z,28.60
2023-04-29T20:16:35.690Z,28.30
2023-04-29T20:19:37.780Z,28.30
2023-04-29T20:22:40.104Z,28.80
2023-04-29T20:25:42.290Z,29.30
2023-04-29T20:28:44.672Z,29.00
2023-04-29T20:31:46.825Z,28.50
2023-04-29T20:34:49.314Z,28.70
2023-04-29T20:37:51.386Z,28.20
2023-04-29T20:40:54.337Z,28.40
2023-04-29T20:43:58.663Z,28.90
2023-04-29T20:47:01.154Z,28.60
2023-04-29T20:50:04.701Z,29.10
2023-04-29T20:53:07.172Z,29.30
2023-04-29T20:56:10.525Z,29.20
2023-04-29T20:59:13.274Z,29.00
2023-04-29T21:02:15.593Z,28.80
2023-04-29T21:05:18.002Z,28.50
2023-04-29T21:08:19.933Z,28.40
2023-04-29T21:11:22.343Z,28.10
2023-04-29T21:14:24.288Z,28.20
2023-04-29T21:17:26.754Z,28.20
2023-04-29T21:20:28.818Z,28.80
2023-04-29T21:23:33.436Z,29.50
2023-04-29T21:26:35.555Z,29.50
2023-04-29T21:29:41.012Z,29.70
2023-04-29T21:32:43.102Z,30.10
2023-04-29T21:35:50.218Z,30.50
2023-04-29T21:38:55.678Z,30.70
2023-04-29T21:42:03.063Z,30.70
2023-04-29T21:45:05.893Z,31.10
2023-04-29T21:48:20.552Z,31.20
2023-04-29T21:51:22.869Z,31.00
2023-04-29T21:54:25.103Z,30.70
2023-04-29T21:57:42.702Z,30.60
2023-04-29T22:00:51.231Z,30.60
2023-04-29T22:03:55.020Z,30.60
2023-04-29T22:06:58.811Z,30.30
2023-04-29T22:10:01.053Z,30.20
2023-04-29T22:13:03.306Z,29.70
2023-04-29T22:16:05.705Z,30.20
2023-04-29T22:19:08.578Z,30.00
2023-04-29T22:22:10.658Z,29.90
2023-04-29T22:25:12.927Z,30.10
2023-04-29T22:28:15.311Z,30.40
2023-04-29T22:31:17.566Z,30.70
2023-04-29T22:34:23.269Z,31.00
2023-04-29T22:37:25.717Z,31.00
2023-04-29T22:40:27.711Z,30.90
2023-04-29T22:43:33.091Z,30.80
2023-04-29T22:46:37.759Z,30.90
2023-04-29T22:49:40.992Z,31.10
2023-04-29T22:52:42.965Z,31.20
2023-04-29T22:55:56.319Z,31.10
2023-04-29T22:58:58.388Z,31.50
2023-04-29T23:02:03.190Z,31.40
2023-04-29T23:05:06.085Z,31.30
2023-04-29T23:08:08.646Z,31.30
2023-04-29T23:11:11.989Z,31.10
2023-04-29T23:14:14.261Z,31.00
2023-04-29T23:17:16.263Z,31.00
2023-04-29T23:20:18.617Z,31.00
2023-04-29T23:23:20.560Z,30.90
2023-04-29T23:26:23.372Z,30.90
2023-04-29T23:29:25.324Z,30.90
2023-04-29T23:32:27.725Z,30.90
2023-04-29T23:35:29.834Z,30.90
2023-04-29T23:38:32.101Z,30.90
2023-04-29T23:41:34.235Z,30.90
2023-04-29T23:44:36.491Z,30.80
2023-04-29T23:47:38.465Z,30.70
2023-04-29T23:50:40.847Z,30.70
2023-04-29T23:53:42.821Z,30.70
2023-04-29T23:56:45.206Z,30.60
2023-04-29T23:59:47.407Z,30.60
